Malahat, Canada
Current Conditions -  °F | °C
As of 10:17 PM on Wednesday 22 Oct 2014 (Local Time) from CYYJ Reporting Station
Broken Clouds Broken Clouds  
Wind Chill: 54°   Ceiling: 6300
Heat Index: 54°   Visibility: 30mi
Dew Point: 48°   Wind: 5mph
Humidity: 82%   Direction: 210°SSW
Pressure: 29.54"   Gusts: NA
Location:  48.56°N, 123.56°W
Report Text: CYYJ 230517Z 21004KT 30SM SCT044 BKN063 BKN080 BKN100 12/09 A2954 RMK SC4SC2AC1AC1 AC TR SLP004
Loading
Personal Weather Stations






























Interactive Weather Map
Tropical Storm Tracking
New forecast layout! Learn more

10-Day Weather Forecast

Advertisements
Track Severe Weather on mobile